Time;durP1;ratioP1;P1;durP2;ratioP2;P2;SDS_P1;SDS_P2;PMS_P1;PMS_P2;Temp;Humidity;BMP_temperature;BMP_pressure;BME280_temperature;BME280_humidity;BME280_pressure;Samples;Min_cycle;Max_cycle;Signal;HPM_P1;HPM_P2
2023/12/18 00:00:57;;;;;;;56.25;28.63;;;;;;;;;;5026672;28;20475;-87
2023/12/18 00:03:22;;;;;;;45.38;24.60;;;;;;;;;;5027211;28;20025;-88
2023/12/18 00:05:48;;;;;;;56.90;32.10;;;;;;;;;;5009402;28;20164;-87
2023/12/18 00:08:13;;;;;;;36.53;19.85;;;;;;;;;;5027055;28;20014;-88
2023/12/18 00:10:38;;;;;;;49.25;30.15;;;;;;;;;;5027312;28;20022;-87
2023/12/18 00:13:05;;;;;;;48.58;26.00;;;;;;;;;;5009343;28;20028;-87
2023/12/18 00:15:30;;;;;;;48.05;24.80;;;;;;;;;;5023337;28;20041;-87
2023/12/18 00:17:56;;;;;;;44.83;27.10;;;;;;;;;;5009291;28;20033;-87
2023/12/18 00:20:21;;;;;;;33.40;20.58;;;;;;;;;;5027411;28;20021;-87
2023/12/18 00:22:46;;;;;;;25.50;13.98;;;;;;;;;;5027057;28;20109;-88
2023/12/18 00:25:12;;;;;;;28.42;17.60;;;;;;;;;;5026561;28;20028;-87
2023/12/18 00:27:37;;;;;;;20.77;12.32;;;;;;;;;;5008957;28;20029;-88
2023/12/18 00:30:03;;;;;;;28.65;19.50;;;;;;;;;;5027247;28;20025;-87
2023/12/18 00:32:28;;;;;;;25.02;16.33;;;;;;;;;;5026716;28;20021;-88
2023/12/18 00:34:54;;;;;;;23.80;15.70;;;;;;;;;;5016437;28;20030;-87
2023/12/18 00:37:19;;;;;;;28.60;17.50;;;;;;;;;;5009229;28;20018;-88
2023/12/18 00:39:44;;;;;;;30.70;18.52;;;;;;;;;;5022026;28;20034;-88
2023/12/18 00:42:09;;;;;;;36.10;22.98;;;;;;;;;;5012942;28;20067;-87
2023/12/18 00:44:35;;;;;;;29.30;18.17;;;;;;;;;;5017239;28;20038;-87
2023/12/18 00:47:02;;;;;;;28.88;18.80;;;;;;;;;;5030584;28;20057;-88
2023/12/18 00:49:28;;;;;;;29.10;20.48;;;;;;;;;;5011541;28;20022;-88
2023/12/18 00:51:53;;;;;;;27.23;17.30;;;;;;;;;;5013192;28;20017;-87
2023/12/18 00:54:18;;;;;;;20.85;13.93;;;;;;;;;;5014483;28;20033;-87
2023/12/18 00:56:44;;;;;;;27.08;17.52;;;;;;;;;;5030413;28;20018;-87
2023/12/18 00:59:09;;;;;;;31.25;20.98;;;;;;;;;;5028265;28;20071;-87
2023/12/18 01:01:35;;;;;;;22.10;13.90;;;;;;;;;;5029988;28;20057;-87
2023/12/18 01:04:00;;;;;;;31.38;19.35;;;;;;;;;;5029834;28;20040;-87
2023/12/18 01:06:25;;;;;;;33.05;20.90;;;;;;;;;;5012829;28;20026;-88
2023/12/18 01:08:50;;;;;;;33.78;20.35;;;;;;;;;;5011894;28;20029;-87
2023/12/18 01:11:16;;;;;;;15.00;11.27;;;;;;;;;;5012104;28;20503;-87
2023/12/18 01:13:41;;;;;;;27.73;18.08;;;;;;;;;;5012123;28;20021;-87
2023/12/18 01:16:06;;;;;;;25.83;15.52;;;;;;;;;;5027486;28;20354;-88
2023/12/18 01:18:32;;;;;;;24.52;16.88;;;;;;;;;;5028814;28;20043;-88
2023/12/18 01:20:57;;;;;;;37.42;24.52;;;;;;;;;;5030183;28;20029;-88
2023/12/18 01:23:22;;;;;;;35.47;21.85;;;;;;;;;;5011506;28;20475;-87
2023/12/18 01:25:48;;;;;;;30.35;20.25;;;;;;;;;;5024881;28;20025;-87
2023/12/18 01:28:13;;;;;;;28.90;18.67;;;;;;;;;;5029232;28;20113;-87
2023/12/18 01:30:38;;;;;;;29.88;18.58;;;;;;;;;;5004665;28;20029;-87
2023/12/18 01:33:04;;;;;;;30.10;18.25;;;;;;;;;;5010709;28;20570;-87
2023/12/18 01:35:29;;;;;;;36.78;22.77;;;;;;;;;;5020923;28;20044;-87
2023/12/18 01:37:54;;;;;;;35.78;21.83;;;;;;;;;;5012164;28;20026;-87
2023/12/18 01:40:20;;;;;;;35.38;20.90;;;;;;;;;;5019980;28;20033;-87
2023/12/18 01:42:45;;;;;;;36.53;20.95;;;;;;;;;;5029560;28;20034;-87
2023/12/18 01:45:11;;;;;;;39.67;26.92;;;;;;;;;;5018336;28;20061;-87
2023/12/18 01:47:36;;;;;;;38.63;20.92;;;;;;;;;;5029465;28;20025;-87
2023/12/18 01:50:02;;;;;;;43.97;25.02;;;;;;;;;;5007424;28;20029;-87
2023/12/18 01:52:28;;;;;;;28.65;17.05;;;;;;;;;;5009852;28;20018;-87
2023/12/18 01:54:53;;;;;;;38.97;21.73;;;;;;;;;;4998324;28;20036;-87
2023/12/18 01:57:19;;;;;;;23.42;13.82;;;;;;;;;;5029581;28;20033;-87
2023/12/18 01:59:46;;;;;;;31.52;17.67;;;;;;;;;;5026103;28;20029;-87
2023/12/18 02:02:11;;;;;;;24.95;17.30;;;;;;;;;;5011020;28;20075;-87
2023/12/18 02:04:37;;;;;;;15.88;11.18;;;;;;;;;;5027472;28;20107;-87
2023/12/18 02:07:03;;;;;;;21.85;14.35;;;;;;;;;;5011123;28;20056;-87
2023/12/18 02:09:28;;;;;;;20.75;13.40;;;;;;;;;;5011019;28;20033;-87
2023/12/18 02:11:53;;;;;;;24.63;15.45;;;;;;;;;;5010771;28;20026;-87
2023/12/18 02:14:19;;;;;;;26.52;17.08;;;;;;;;;;5029032;28;20033;-88
2023/12/18 02:16:44;;;;;;;36.90;20.60;;;;;;;;;;5011168;28;20522;-87
2023/12/18 02:19:26;;;;;;;24.80;14.27;;;;;;;;;;5011132;28;20376;-87
2023/12/18 02:21:52;;;;;;;32.40;20.63;;;;;;;;;;5007977;28;20300;-87
2023/12/18 02:24:18;;;;;;;34.03;22.30;;;;;;;;;;4990604;28;20120;-87
2023/12/18 02:26:43;;;;;;;36.95;21.70;;;;;;;;;;5028926;28;20053;-87
2023/12/18 02:29:09;;;;;;;21.83;13.98;;;;;;;;;;5010358;28;20028;-87
2023/12/18 02:31:36;;;;;;;29.13;17.48;;;;;;;;;;5013950;28;20458;-87
2023/12/18 02:34:01;;;;;;;26.13;16.88;;;;;;;;;;5028431;28;20049;-87
2023/12/18 02:36:28;;;;;;;25.63;15.02;;;;;;;;;;5024610;28;20124;-87
2023/12/18 02:38:53;;;;;;;29.70;19.63;;;;;;;;;;5028351;28;20044;-87
2023/12/18 02:41:18;;;;;;;31.13;15.60;;;;;;;;;;5028328;28;20029;-87
2023/12/18 02:43:43;;;;;;;30.92;18.63;;;;;;;;;;5010713;28;20086;-87
2023/12/18 02:46:09;;;;;;;33.17;19.88;;;;;;;;;;5010463;28;20030;-87
2023/12/18 02:48:34;;;;;;;30.27;18.92;;;;;;;;;;5010066;28;20049;-87
2023/12/18 02:50:59;;;;;;;31.30;19.35;;;;;;;;;;5010390;28;20422;-87
2023/12/18 02:53:24;;;;;;;34.40;20.10;;;;;;;;;;5028197;28;20037;-87
2023/12/18 02:55:50;;;;;;;26.60;14.73;;;;;;;;;;5008895;28;20032;-87
2023/12/18 02:58:15;;;;;;;27.13;17.27;;;;;;;;;;5027432;28;20049;-87
2023/12/18 03:00:40;;;;;;;23.67;14.35;;;;;;;;;;5028184;28;20021;-87
2023/12/18 03:03:06;;;;;;;24.83;14.63;;;;;;;;;;5027358;28;20029;-87
2023/12/18 03:05:32;;;;;;;26.60;17.75;;;;;;;;;;5009932;28;20025;-87
2023/12/18 03:07:57;;;;;;;35.78;19.33;;;;;;;;;;5009995;28;20372;-87
2023/12/18 03:10:22;;;;;;;22.00;12.63;;;;;;;;;;5013100;28;20490;-88
2023/12/18 03:12:48;;;;;;;26.27;15.93;;;;;;;;;;5027795;28;20041;-87
2023/12/18 03:15:13;;;;;;;24.17;13.93;;;;;;;;;;5005002;28;20037;-86
2023/12/18 03:17:38;;;;;;;19.13;12.55;;;;;;;;;;4988519;28;20400;-87
2023/12/18 03:20:05;;;;;;;21.17;12.30;;;;;;;;;;5005446;28;20034;-87
2023/12/18 03:22:30;;;;;;;17.73;11.55;;;;;;;;;;4988578;28;20030;-87
2023/12/18 03:24:56;;;;;;;24.02;15.07;;;;;;;;;;5005358;28;20044;-87
2023/12/18 03:27:21;;;;;;;18.60;11.75;;;;;;;;;;5004861;28;20427;-87
2023/12/18 03:29:46;;;;;;;26.83;17.80;;;;;;;;;;4988778;28;20079;-87
2023/12/18 03:32:12;;;;;;;24.80;14.98;;;;;;;;;;4988415;28;20147;-87
2023/12/18 03:34:37;;;;;;;23.27;14.82;;;;;;;;;;4988451;28;20050;-87
2023/12/18 03:37:02;;;;;;;22.42;13.10;;;;;;;;;;4988789;28;20022;-86
2023/12/18 03:39:28;;;;;;;27.27;16.52;;;;;;;;;;4988674;28;20447;-87
2023/12/18 03:41:53;;;;;;;23.95;12.98;;;;;;;;;;5004853;28;20034;-88
2023/12/18 03:44:18;;;;;;;23.27;13.80;;;;;;;;;;5004743;28;20033;-87
2023/12/18 03:46:44;;;;;;;28.40;17.88;;;;;;;;;;5001941;28;20789;-87
2023/12/18 03:49:09;;;;;;;26.40;15.35;;;;;;;;;;5006446;28;20022;-87
2023/12/18 03:51:35;;;;;;;28.92;19.38;;;;;;;;;;5022006;28;20783;-86
2023/12/18 03:54:00;;;;;;;35.47;20.75;;;;;;;;;;5009448;28;20040;-87
2023/12/18 03:56:25;;;;;;;20.23;12.68;;;;;;;;;;5018807;28;20033;-87
2023/12/18 03:58:51;;;;;;;20.80;12.60;;;;;;;;;;5027488;28;20420;-86
2023/12/18 04:01:16;;;;;;;25.45;15.23;;;;;;;;;;4990198;28;20033;-87
2023/12/18 04:03:41;;;;;;;29.15;19.88;;;;;;;;;;4989631;28;20437;-86
2023/12/18 04:06:07;;;;;;;22.88;14.75;;;;;;;;;;5017067;28;20028;-87
2023/12/18 04:08:32;;;;;;;23.42;14.52;;;;;;;;;;5027451;28;20025;-87
2023/12/18 04:10:58;;;;;;;27.83;18.33;;;;;;;;;;5005803;28;20029;-87
2023/12/18 04:13:23;;;;;;;25.42;15.90;;;;;;;;;;5008545;28;20491;-87
2023/12/18 04:15:49;;;;;;;18.40;11.43;;;;;;;;;;5018086;28;20022;-87
2023/12/18 04:18:14;;;;;;;24.60;13.80;;;;;;;;;;5031021;28;20440;-87
2023/12/18 04:20:40;;;;;;;27.80;18.48;;;;;;;;;;5031131;28;20022;-87
2023/12/18 04:23:06;;;;;;;22.25;12.52;;;;;;;;;;5012720;28;20391;-87
2023/12/18 04:25:31;;;;;;;21.17;13.02;;;;;;;;;;5031009;28;20021;-87
2023/12/18 04:27:57;;;;;;;24.70;14.88;;;;;;;;;;5016487;28;20021;-87
2023/12/18 04:30:22;;;;;;;18.75;12.25;;;;;;;;;;5029818;28;20033;-87
2023/12/18 04:32:47;;;;;;;25.50;16.10;;;;;;;;;;5030446;28;20042;-87
2023/12/18 04:35:13;;;;;;;21.60;14.35;;;;;;;;;;5030420;28;20021;-87
2023/12/18 04:37:38;;;;;;;24.63;15.35;;;;;;;;;;5013159;28;20040;-87
2023/12/18 04:40:04;;;;;;;18.83;11.88;;;;;;;;;;5012986;28;20026;-87
2023/12/18 04:42:29;;;;;;;21.25;13.93;;;;;;;;;;5012822;28;20082;-87
2023/12/18 04:44:55;;;;;;;26.67;17.42;;;;;;;;;;5012514;28;20018;-87
2023/12/18 04:47:20;;;;;;;22.42;13.80;;;;;;;;;;5027233;28;20076;-87
2023/12/18 04:49:45;;;;;;;23.27;14.65;;;;;;;;;;5012517;28;20531;-87
2023/12/18 04:52:11;;;;;;;22.80;15.63;;;;;;;;;;5012615;28;20532;-87
2023/12/18 04:54:36;;;;;;;34.33;22.10;;;;;;;;;;5012374;28;20048;-87
2023/12/18 04:57:01;;;;;;;25.27;15.65;;;;;;;;;;5030055;28;20080;-87
2023/12/18 04:59:27;;;;;;;30.20;19.60;;;;;;;;;;5028562;28;20451;-87
2023/12/18 05:01:52;;;;;;;31.98;20.08;;;;;;;;;;5021052;28;20044;-87
2023/12/18 05:04:17;;;;;;;37.53;21.52;;;;;;;;;;5011684;28;20391;-87
2023/12/18 05:06:42;;;;;;;23.25;15.40;;;;;;;;;;5012310;28;20018;-87
2023/12/18 05:09:08;;;;;;;30.45;18.60;;;;;;;;;;5012041;28;20140;-87
2023/12/18 05:11:33;;;;;;;27.75;17.83;;;;;;;;;;5009106;28;20033;-87
2023/12/18 05:13:58;;;;;;;27.65;17.95;;;;;;;;;;5010017;28;20029;-87
2023/12/18 05:16:24;;;;;;;27.17;16.30;;;;;;;;;;5001386;28;20554;-87
2023/12/18 05:18:49;;;;;;;136.73;74.40;;;;;;;;;;5011984;28;20026;-87
2023/12/18 05:21:14;;;;;;;31.50;20.15;;;;;;;;;;5016015;28;20033;-87
2023/12/18 05:23:40;;;;;;;27.30;16.52;;;;;;;;;;5029872;28;20032;-87
2023/12/18 05:26:05;;;;;;;37.40;25.08;;;;;;;;;;5007129;28;20030;-87
2023/12/18 05:28:31;;;;;;;30.35;19.05;;;;;;;;;;5009226;28;20049;-87
2023/12/18 05:30:56;;;;;;;28.80;18.13;;;;;;;;;;4996602;28;20037;-87
2023/12/18 05:33:21;;;;;;;32.45;17.60;;;;;;;;;;5011648;28;20049;-87
2023/12/18 05:35:47;;;;;;;46.80;26.10;;;;;;;;;;5011396;28;20025;-87
2023/12/18 05:38:12;;;;;;;40.03;21.63;;;;;;;;;;5028204;28;20021;-87
2023/12/18 05:40:37;;;;;;;46.90;29.20;;;;;;;;;;5011528;28;20403;-87
2023/12/18 05:43:04;;;;;;;42.10;27.50;;;;;;;;;;5029937;28;20476;-87
2023/12/18 05:45:31;;;;;;;45.35;26.67;;;;;;;;;;5010837;28;20526;-88
2023/12/18 05:47:56;;;;;;;27.08;15.63;;;;;;;;;;5029633;28;20032;-87
2023/12/18 05:50:21;;;;;;;44.50;27.10;;;;;;;;;;5029343;28;20104;-87
2023/12/18 05:52:47;;;;;;;38.17;21.75;;;;;;;;;;5026277;28;20032;-87
2023/12/18 05:55:12;;;;;;;43.60;23.92;;;;;;;;;;5027572;28;20031;-87
2023/12/18 05:57:37;;;;;;;37.00;23.40;;;;;;;;;;5008086;28;20037;-87
2023/12/18 06:00:04;;;;;;;39.30;21.80;;;;;;;;;;5026775;28;20502;-87
2023/12/18 06:02:29;;;;;;;34.75;18.95;;;;;;;;;;5013639;28;20487;-87
2023/12/18 06:04:55;;;;;;;46.45;25.38;;;;;;;;;;5011171;28;20084;-87
2023/12/18 06:07:20;;;;;;;37.00;21.27;;;;;;;;;;5011309;28;20049;-87
2023/12/18 06:09:45;;;;;;;48.60;25.88;;;;;;;;;;5029069;28;20375;-87
2023/12/18 06:12:11;;;;;;;35.03;20.58;;;;;;;;;;5011265;28;20396;-86
2023/12/18 06:14:36;;;;;;;83.22;52.17;;;;;;;;;;5011072;28;20025;-87
2023/12/18 06:17:02;;;;;;;62.10;38.25;;;;;;;;;;5034529;28;20039;-87
2023/12/18 06:19:27;;;;;;;52.10;29.35;;;;;;;;;;5022444;28;20021;-87
2023/12/18 06:21:53;;;;;;;58.40;34.42;;;;;;;;;;5017314;28;20025;-86
2023/12/18 06:24:19;;;;;;;42.08;26.30;;;;;;;;;;5028748;28;20475;-87
2023/12/18 06:26:44;;;;;;;38.97;22.77;;;;;;;;;;5010818;28;20021;-89
2023/12/18 06:29:09;;;;;;;65.93;32.88;;;;;;;;;;5028946;28;20029;-89
2023/12/18 06:31:34;;;;;;;78.70;40.20;;;;;;;;;;5014086;28;20442;-89
2023/12/18 06:34:00;;;;;;;57.20;31.95;;;;;;;;;;5028175;28;20434;-88
2023/12/18 06:36:25;;;;;;;51.67;28.80;;;;;;;;;;5006463;28;20057;-89
2023/12/18 06:38:50;;;;;;;69.22;35.13;;;;;;;;;;5013149;28;20021;-88
2023/12/18 06:41:16;;;;;;;323.42;147.10;;;;;;;;;;5028445;28;20087;-89
2023/12/18 06:43:42;;;;;;;256.38;95.15;;;;;;;;;;5027979;28;20040;-87
2023/12/18 06:46:07;;;;;;;120.28;55.00;;;;;;;;;;5008842;28;20880;-89
2023/12/18 06:48:32;;;;;;;278.58;141.27;;;;;;;;;;5016140;28;20471;-88
2023/12/18 06:50:57;;;;;;;115.35;61.90;;;;;;;;;;5014629;28;20430;-89
2023/12/18 06:53:23;;;;;;;85.18;40.30;;;;;;;;;;5026654;28;20056;-88
2023/12/18 06:55:48;;;;;;;67.45;39.10;;;;;;;;;;5019278;28;20032;-87
2023/12/18 06:58:13;;;;;;;49.38;27.45;;;;;;;;;;5020496;28;20128;-87
2023/12/18 07:00:39;;;;;;;51.10;26.45;;;;;;;;;;5027622;28;20402;-86
2023/12/18 07:03:04;;;;;;;80.32;48.42;;;;;;;;;;5017915;28;20538;-87
2023/12/18 07:05:30;;;;;;;73.88;42.90;;;;;;;;;;5027546;28;20105;-87
2023/12/18 07:07:56;;;;;;;49.15;30.60;;;;;;;;;;5016371;28;20075;-87
2023/12/18 07:10:21;;;;;;;49.30;26.30;;;;;;;;;;5018140;28;20434;-88
2023/12/18 07:12:46;;;;;;;64.30;30.48;;;;;;;;;;5018866;28;20075;-87
2023/12/18 07:15:12;;;;;;;59.65;31.55;;;;;;;;;;5033933;28;20058;-87
2023/12/18 07:17:37;;;;;;;48.17;27.27;;;;;;;;;;5020076;28;20025;-87
2023/12/18 07:20:02;;;;;;;64.70;36.38;;;;;;;;;;5026801;28;20053;-87
2023/12/18 07:22:28;;;;;;;57.50;28.77;;;;;;;;;;5034027;28;20120;-87
2023/12/18 07:24:53;;;;;;;80.47;42.13;;;;;;;;;;5009798;28;20060;-87
2023/12/18 07:27:18;;;;;;;68.85;33.53;;;;;;;;;;5012609;28;20032;-87
2023/12/18 07:29:44;;;;;;;55.17;29.30;;;;;;;;;;5009648;28;20475;-87
2023/12/18 07:32:09;;;;;;;62.10;32.80;;;;;;;;;;5022940;28;20108;-86
2023/12/18 07:34:34;;;;;;;55.30;32.83;;;;;;;;;;5009527;28;20045;-87
2023/12/18 07:37:00;;;;;;;72.38;39.90;;;;;;;;;;5009227;28;20372;-86
2023/12/18 07:39:25;;;;;;;98.28;50.30;;;;;;;;;;5027681;28;20036;-86
2023/12/18 07:41:50;;;;;;;120.40;60.47;;;;;;;;;;5011674;28;20112;-86
2023/12/18 07:44:15;;;;;;;79.57;36.17;;;;;;;;;;5023605;28;20440;-87
2023/12/18 07:46:41;;;;;;;106.55;57.72;;;;;;;;;;5024520;28;20032;-86
2023/12/18 07:49:07;;;;;;;59.15;29.48;;;;;;;;;;5009128;28;20456;-86
2023/12/18 07:51:33;;;;;;;54.78;29.33;;;;;;;;;;5009488;28;20067;-87
2023/12/18 07:53:58;;;;;;;58.70;32.08;;;;;;;;;;5009638;28;20239;-86
2023/12/18 07:56:24;;;;;;;49.92;23.95;;;;;;;;;;5027710;28;20127;-85
2023/12/18 07:58:49;;;;;;;49.63;25.88;;;;;;;;;;5027446;28;20037;-85
2023/12/18 08:01:16;;;;;;;48.08;30.00;;;;;;;;;;5009449;28;20048;-85
2023/12/18 08:03:42;;;;;;;50.78;26.90;;;;;;;;;;5028029;28;20037;-86
2023/12/18 08:06:07;;;;;;;69.65;34.47;;;;;;;;;;5010415;28;20044;-85
2023/12/18 08:08:32;;;;;;;63.58;31.15;;;;;;;;;;5020481;28;20104;-85
2023/12/18 08:10:58;;;;;;;52.72;27.33;;;;;;;;;;5025881;28;20028;-84
2023/12/18 08:13:23;;;;;;;67.30;35.13;;;;;;;;;;5006964;28;20522;-84
2023/12/18 08:15:48;;;;;;;48.50;25.98;;;;;;;;;;5007372;28;20519;-85
2023/12/18 08:18:15;;;;;;;55.88;31.35;;;;;;;;;;4998604;28;20025;-84
2023/12/18 08:20:40;;;;;;;52.45;29.20;;;;;;;;;;5027417;28;20029;-84
2023/12/18 08:23:05;;;;;;;58.75;33.50;;;;;;;;;;5026698;28;20060;-85
2023/12/18 08:25:31;;;;;;;47.60;25.95;;;;;;;;;;5009139;28;20590;-85
2023/12/18 08:27:56;;;;;;;52.65;30.40;;;;;;;;;;5027532;28;20075;-84
2023/12/18 08:30:21;;;;;;;45.65;26.63;;;;;;;;;;5011777;28;20032;-85
2023/12/18 08:32:47;;;;;;;45.17;28.23;;;;;;;;;;5008062;28;20880;-85
2023/12/18 08:35:12;;;;;;;57.53;33.00;;;;;;;;;;5048589;28;20031;-84
2023/12/18 08:37:37;;;;;;;50.65;27.67;;;;;;;;;;5046126;28;20029;-84
2023/12/18 08:40:03;;;;;;;41.00;24.38;;;;;;;;;;5010799;28;20017;-85
2023/12/18 08:42:28;;;;;;;47.08;25.10;;;;;;;;;;5029927;28;20489;-85
2023/12/18 08:44:54;;;;;;;48.80;30.83;;;;;;;;;;5011411;28;20034;-86
2023/12/18 08:47:19;;;;;;;39.58;24.55;;;;;;;;;;5016153;28;20490;-84
2023/12/18 08:49:44;;;;;;;34.95;21.98;;;;;;;;;;5031497;28;20052;-85
2023/12/18 08:52:09;;;;;;;40.90;26.33;;;;;;;;;;5026917;28;20104;-85
2023/12/18 08:54:36;;;;;;;149.98;101.15;;;;;;;;;;5031796;28;20039;-85
2023/12/18 08:57:01;;;;;;;51.40;34.45;;;;;;;;;;5032558;28;20554;-85
2023/12/18 08:59:27;;;;;;;55.90;36.75;;;;;;;;;;5029165;28;20037;-86
2023/12/18 09:01:52;;;;;;;69.38;40.13;;;;;;;;;;5030200;28;20025;-86
2023/12/18 09:04:17;;;;;;;70.80;33.42;;;;;;;;;;5018480;28;20029;-86
2023/12/18 09:06:43;;;;;;;41.58;25.77;;;;;;;;;;5012000;28;20032;-86
2023/12/18 09:09:09;;;;;;;51.15;27.80;;;;;;;;;;5017823;28;20632;-86
2023/12/18 09:11:35;;;;;;;41.15;24.40;;;;;;;;;;5012280;28;20486;-85
2023/12/18 09:14:03;;;;;;;53.28;34.55;;;;;;;;;;5012140;28;20319;-85
2023/12/18 09:16:28;;;;;;;42.33;23.35;;;;;;;;;;5029949;28;20091;-86
2023/12/18 09:18:53;;;;;;;63.78;31.58;;;;;;;;;;5012419;28;20479;-86
2023/12/18 09:21:19;;;;;;;59.85;28.85;;;;;;;;;;5029902;28;20064;-86
2023/12/18 09:23:45;;;;;;;48.72;28.02;;;;;;;;;;5018483;28;20430;-87
2023/12/18 09:26:14;;;;;;;42.13;32.13;;;;;;;;;;5029609;28;20056;-87
2023/12/18 09:28:39;;;;;;;47.33;26.15;;;;;;;;;;5026038;28;20479;-86
2023/12/18 09:31:07;;;;;;;21.88;17.75;;;;;;;;;;5029394;28;20079;-86
2023/12/18 09:33:36;;;;;;;30.77;26.83;;;;;;;;;;5029444;28;20049;-86
2023/12/18 09:36:01;;;;;;;41.60;32.08;;;;;;;;;;5029646;28;20129;-88
2023/12/18 09:38:27;;;;;;;20.13;12.25;;;;;;;;;;5011978;28;20025;-86
2023/12/18 09:40:52;;;;;;;35.78;21.10;;;;;;;;;;5027452;28;20452;-87
2023/12/18 09:43:18;;;;;;;30.38;20.05;;;;;;;;;;5028381;28;20108;-88
2023/12/18 09:45:47;;;;;;;27.15;17.92;;;;;;;;;;5013321;28;20028;-86
2023/12/18 09:48:12;;;;;;;31.02;23.45;;;;;;;;;;5028631;28;20503;-87
2023/12/18 09:50:38;;;;;;;18.98;14.88;;;;;;;;;;5031267;28;20049;-86
2023/12/18 09:53:07;;;;;;;24.20;16.27;;;;;;;;;;5011523;28;20078;-86
2023/12/18 09:55:33;;;;;;;26.48;17.60;;;;;;;;;;5029280;28;20029;-86
2023/12/18 09:57:59;;;;;;;18.10;13.05;;;;;;;;;;4998577;28;20029;-84
2023/12/18 10:00:25;;;;;;;35.92;20.75;;;;;;;;;;5016979;28;20021;-87
2023/12/18 10:02:51;;;;;;;23.08;18.85;;;;;;;;;;5013365;28;20175;-85
2023/12/18 10:05:16;;;;;;;30.52;24.33;;;;;;;;;;5010629;28;20106;-85
2023/12/18 10:07:41;;;;;;;16.05;11.23;;;;;;;;;;5004163;28;20026;-85
2023/12/18 10:10:07;;;;;;;25.58;18.95;;;;;;;;;;5021049;28;20025;-85
2023/12/18 10:12:32;;;;;;;15.85;11.77;;;;;;;;;;5010518;28;20401;-85
2023/12/18 10:14:58;;;;;;;14.00;11.43;;;;;;;;;;5018438;28;20373;-87
2023/12/18 10:17:23;;;;;;;20.48;14.52;;;;;;;;;;5028789;28;20033;-87
2023/12/18 10:19:49;;;;;;;21.55;15.23;;;;;;;;;;5024211;28;20025;-87
2023/12/18 10:22:16;;;;;;;17.80;13.00;;;;;;;;;;5012675;28;20112;-88
2023/12/18 10:24:42;;;;;;;17.42;13.38;;;;;;;;;;5016681;28;20132;-87
2023/12/18 10:27:12;;;;;;;19.00;13.82;;;;;;;;;;5032717;28;20323;-87
2023/12/18 10:29:37;;;;;;;11.93;10.10;;;;;;;;;;5014269;28;20021;-88
2023/12/18 10:32:03;;;;;;;11.93;9.20;;;;;;;;;;5011787;28;20044;-88
2023/12/18 10:34:28;;;;;;;12.93;11.43;;;;;;;;;;5008265;28;20085;-88
2023/12/18 10:36:55;;;;;;;17.05;12.48;;;;;;;;;;5022159;28;20029;-88
2023/12/18 10:39:21;;;;;;;15.52;13.00;;;;;;;;;;5028839;28;20025;-88
2023/12/18 10:41:52;;;;;;;25.17;20.73;;;;;;;;;;5001892;28;20029;-87
2023/12/18 10:44:18;;;;;;;16.45;10.98;;;;;;;;;;5016230;28;20033;-88
2023/12/18 10:46:44;;;;;;;16.02;12.93;;;;;;;;;;5031773;28;20052;-88
2023/12/18 10:49:15;;;;;;;12.93;11.02;;;;;;;;;;5031370;28;20056;-88
2023/12/18 10:51:41;;;;;;;29.02;16.95;;;;;;;;;;5016114;28;20026;-89
2023/12/18 10:54:07;;;;;;;13.82;10.27;;;;;;;;;;5032149;28;20022;-89
2023/12/18 10:56:32;;;;;;;16.60;12.90;;;;;;;;;;5013242;28;20036;-89
2023/12/18 10:58:59;;;;;;;14.98;10.85;;;;;;;;;;5033024;28;20025;-88
2023/12/18 11:01:27;;;;;;;11.45;9.32;;;;;;;;;;5026451;28;20079;-88
2023/12/18 11:03:52;;;;;;;26.38;19.38;;;;;;;;;;5033398;28;20027;-88
2023/12/18 11:06:18;;;;;;;13.40;10.10;;;;;;;;;;5026165;28;20053;-88
2023/12/18 11:08:44;;;;;;;16.98;13.02;;;;;;;;;;5035321;28;20045;-89
2023/12/18 11:11:10;;;;;;;21.80;15.15;;;;;;;;;;5035981;28;20013;-88
2023/12/18 11:13:40;;;;;;;26.77;19.25;;;;;;;;;;5033434;28;20495;-90
2023/12/18 11:16:18;;;;;;;17.05;13.98;;;;;;;;;;5019310;28;20032;-90
2023/12/18 11:18:58;;;;;;;18.98;15.68;;;;;;;;;;5023385;28;20032;-88
2023/12/18 11:21:23;;;;;;;28.38;20.52;;;;;;;;;;5022906;28;20227;-89
2023/12/18 11:23:52;;;;;;;32.80;20.33;;;;;;;;;;5019592;28;20128;-89
2023/12/18 11:26:18;;;;;;;21.27;16.42;;;;;;;;;;5018154;28;20028;-90
2023/12/18 11:28:43;;;;;;;17.55;14.43;;;;;;;;;;5030546;28;20506;-89
2023/12/18 11:31:11;;;;;;;80.15;33.00;;;;;;;;;;5006010;28;20025;-90
2023/12/18 11:33:57;;;;;;;12.32;10.43;;;;;;;;;;5035125;28;20047;-89
2023/12/18 11:36:22;;;;;;;13.27;11.30;;;;;;;;;;5038677;28;20068;-90
2023/12/18 11:38:49;;;;;;;17.55;14.52;;;;;;;;;;5028051;28;20041;-89
2023/12/18 11:41:33;;;;;;;15.23;12.18;;;;;;;;;;5010393;28;20036;-89
2023/12/18 11:44:06;;;;;;;13.30;11.60;;;;;;;;;;5031726;28;20025;-89
2023/12/18 11:46:32;;;;;;;11.98;9.63;;;;;;;;;;5013912;28;20032;-88
2023/12/18 11:48:59;;;;;;;19.40;15.38;;;;;;;;;;5036231;28;20017;-90
2023/12/18 11:51:25;;;;;;;14.27;12.27;;;;;;;;;;5018354;28;20021;-90
2023/12/18 11:54:00;;;;;;;12.73;11.13;;;;;;;;;;5016932;28;20095;-90
2023/12/18 11:56:37;;;;;;;17.05;14.95;;;;;;;;;;5013067;28;20059;-90
2023/12/18 11:59:02;;;;;;;18.40;16.13;;;;;;;;;;5025065;28;20087;-89
2023/12/18 12:01:27;;;;;;;16.05;12.90;;;;;;;;;;5031534;28;20486;-90
2023/12/18 12:03:54;;;;;;;14.75;13.25;;;;;;;;;;5035433;28;20023;-89
2023/12/18 12:06:20;;;;;;;13.60;10.85;;;;;;;;;;5018060;28;20418;-89
2023/12/18 12:08:49;;;;;;;19.48;17.00;;;;;;;;;;5018260;28;20013;-90
2023/12/18 12:11:14;;;;;;;19.00;15.52;;;;;;;;;;5013510;28;20091;-90
2023/12/18 12:13:41;;;;;;;19.02;15.20;;;;;;;;;;5016286;28;20141;-88
2023/12/18 12:16:07;;;;;;;15.38;13.70;;;;;;;;;;5033658;28;20120;-89
2023/12/18 12:18:43;;;;;;;14.32;12.82;;;;;;;;;;5033310;28;20061;-91
2023/12/18 12:21:11;;;;;;;14.88;12.10;;;;;;;;;;5017334;28;20055;-91
2023/12/18 12:23:36;;;;;;;18.17;13.32;;;;;;;;;;5026818;28;20052;-90
2023/12/18 12:26:02;;;;;;;12.23;10.95;;;;;;;;;;5020796;28;20016;-89
2023/12/18 12:28:29;;;;;;;16.77;13.35;;;;;;;;;;5018525;28;20095;-90
2023/12/18 12:30:54;;;;;;;12.85;10.40;;;;;;;;;;5010871;28;20018;-90
2023/12/18 12:33:19;;;;;;;12.18;10.63;;;;;;;;;;5009210;28;20045;-89
2023/12/18 12:35:45;;;;;;;13.07;11.57;;;;;;;;;;5024433;28;20033;-89
2023/12/18 12:38:11;;;;;;;17.42;15.55;;;;;;;;;;4994266;28;20388;-89
2023/12/18 12:40:40;;;;;;;19.95;15.45;;;;;;;;;;5010824;28;20048;-90
2023/12/18 12:43:06;;;;;;;23.83;21.40;;;;;;;;;;5005778;28;20103;-90
2023/12/18 12:45:31;;;;;;;20.70;14.85;;;;;;;;;;4993436;28;20014;-88
2023/12/18 12:47:58;;;;;;;25.10;18.02;;;;;;;;;;4995161;28;21031;-89
2023/12/18 12:50:23;;;;;;;33.17;23.85;;;;;;;;;;4995437;28;20483;-89
2023/12/18 12:52:49;;;;;;;20.48;14.98;;;;;;;;;;4995726;28;20060;-88
2023/12/18 12:55:14;;;;;;;27.38;18.98;;;;;;;;;;5005602;28;20484;-88
2023/12/18 12:57:40;;;;;;;46.13;29.67;;;;;;;;;;5013286;28;20017;-88
2023/12/18 13:00:08;;;;;;;43.50;30.98;;;;;;;;;;5007792;28;20022;-87
2023/12/18 13:02:33;;;;;;;29.15;22.52;;;;;;;;;;4994264;28;20017;-88
2023/12/18 13:04:59;;;;;;;20.13;16.88;;;;;;;;;;5000852;28;20116;-88
2023/12/18 13:07:24;;;;;;;69.80;46.47;;;;;;;;;;5001053;28;20022;-88
2023/12/18 13:09:50;;;;;;;20.40;17.65;;;;;;;;;;4998933;28;20048;-88
2023/12/18 13:12:16;;;;;;;37.78;27.30;;;;;;;;;;4996149;28;20032;-88
2023/12/18 13:14:43;;;;;;;20.02;15.52;;;;;;;;;;4992443;28;20022;-88
2023/12/18 13:17:15;;;;;;;12.25;10.57;;;;;;;;;;4992587;28;20022;-88
2023/12/18 13:19:40;;;;;;;22.98;17.95;;;;;;;;;;4989875;28;20026;-89
2023/12/18 13:22:06;;;;;;;63.72;48.70;;;;;;;;;;4999772;28;20048;-89
2023/12/18 13:24:32;;;;;;;43.85;34.90;;;;;;;;;;4997378;28;20029;-88
2023/12/18 13:26:58;;;;;;;31.77;27.65;;;;;;;;;;4991365;28;20587;-89
2023/12/18 13:29:23;;;;;;;48.90;36.15;;;;;;;;;;5011674;28;20100;-89
2023/12/18 13:31:49;;;;;;;61.95;38.53;;;;;;;;;;4993106;28;20387;-89
2023/12/18 13:34:15;;;;;;;153.52;82.30;;;;;;;;;;5012570;28;20037;-90
2023/12/18 13:36:41;;;;;;;146.32;66.22;;;;;;;;;;5004862;28;20030;-87
2023/12/18 13:39:07;;;;;;;33.60;20.08;;;;;;;;;;5010672;28;20034;-88
2023/12/18 13:41:33;;;;;;;34.90;22.80;;;;;;;;;;5012769;28;20075;-87
2023/12/18 13:44:02;;;;;;;42.08;27.05;;;;;;;;;;5010236;28;20037;-87
2023/12/18 13:46:28;;;;;;;93.75;43.05;;;;;;;;;;5010854;28;20020;-88
2023/12/18 13:48:53;;;;;;;314.08;105.57;;;;;;;;;;5008723;28;20037;-88
2023/12/18 13:51:19;;;;;;;40.20;25.27;;;;;;;;;;5009715;28;20101;-88
2023/12/18 13:53:44;;;;;;;101.85;42.25;;;;;;;;;;5004502;28;20485;-88
2023/12/18 13:56:09;;;;;;;90.85;38.45;;;;;;;;;;5001478;28;20026;-89
2023/12/18 13:58:35;;;;;;;77.70;32.28;;;;;;;;;;5006583;28;20031;-88
2023/12/18 14:01:00;;;;;;;100.03;38.92;;;;;;;;;;4991890;28;20026;-87
2023/12/18 14:03:26;;;;;;;109.53;45.35;;;;;;;;;;5007636;28;20057;-87
2023/12/18 14:05:51;;;;;;;115.97;47.20;;;;;;;;;;4992213;28;20054;-88
2023/12/18 14:08:17;;;;;;;488.52;213.90;;;;;;;;;;5008594;28;20025;-88